sensor_id;sensor_type;location;lat;lon;timestamp;pressure;altitude;pressure_sealevel;temperature;humidity
72925;BME280;61070;50.794;7.054;2023-03-01T00:01:07;102147.72;;;-2.14;85.74
72925;BME280;61070;50.794;7.054;2023-03-01T00:03:33;102145.22;;;-2.12;85.81
72925;BME280;61070;50.794;7.054;2023-03-01T00:05:58;102143.94;;;-2.19;85.38
72925;BME280;61070;50.794;7.054;2023-03-01T00:08:24;102150.31;;;-2.14;86.16
72925;BME280;61070;50.794;7.054;2023-03-01T00:13:30;102147.94;;;-2.24;86.14
72925;BME280;61070;50.794;7.054;2023-03-01T00:15:55;102154.13;;;-2.22;86.23
72925;BME280;61070;50.794;7.054;2023-03-01T00:18:20;102156.63;;;-2.23;86.11
72925;BME280;61070;50.794;7.054;2023-03-01T00:20:54;102158.50;;;-2.21;86.43
72925;BME280;61070;50.794;7.054;2023-03-01T00:23:20;102160.94;;;-2.24;86.46
72925;BME280;61070;50.794;7.054;2023-03-01T00:25:45;102157.53;;;-2.23;86.77
72925;BME280;61070;50.794;7.054;2023-03-01T00:28:11;102164.41;;;-2.23;86.49
72925;BME280;61070;50.794;7.054;2023-03-01T00:30:36;102157.53;;;-2.23;86.95
72925;BME280;61070;50.794;7.054;2023-03-01T00:33:01;102157.72;;;-2.20;86.98
72925;BME280;61070;50.794;7.054;2023-03-01T00:35:26;102164.09;;;-2.28;86.35
72925;BME280;61070;50.794;7.054;2023-03-01T00:37:52;102164.22;;;-2.26;86.71
72925;BME280;61070;50.794;7.054;2023-03-01T00:40:30;102160.16;;;-2.36;86.42
72925;BME280;61070;50.794;7.054;2023-03-01T00:42:56;102152.16;;;-2.39;86.46
72925;BME280;61070;50.794;7.054;2023-03-01T00:45:22;102156.97;;;-2.45;86.16
72925;BME280;61070;50.794;7.054;2023-03-01T00:47:48;102153.47;;;-2.46;86.92
72925;BME280;61070;50.794;7.054;2023-03-01T00:50:14;102158.75;;;-2.44;87.17
72925;BME280;61070;50.794;7.054;2023-03-01T00:52:39;102151.97;;;-2.42;87.33
72925;BME280;61070;50.794;7.054;2023-03-01T00:55:05;102155.66;;;-2.52;87.05
72925;BME280;61070;50.794;7.054;2023-03-01T00:57:31;102151.78;;;-2.45;87.25
72925;BME280;61070;50.794;7.054;2023-03-01T00:59:57;102152.25;;;-2.51;87.26
72925;BME280;61070;50.794;7.054;2023-03-01T01:02:22;102148.59;;;-2.54;87.68
72925;BME280;61070;50.794;7.054;2023-03-01T01:04:49;102147.78;;;-2.53;87.97
72925;BME280;61070;50.794;7.054;2023-03-01T01:07:15;102145.28;;;-2.52;87.96
72925;BME280;61070;50.794;7.054;2023-03-01T01:09:40;102137.84;;;-2.60;87.31
72925;BME280;61070;50.794;7.054;2023-03-01T01:12:06;102141.09;;;-2.63;88.13
72925;BME280;61070;50.794;7.054;2023-03-01T01:14:32;102135.22;;;-2.74;87.50
72925;BME280;61070;50.794;7.054;2023-03-01T01:16:58;102133.75;;;-2.70;87.72
72925;BME280;61070;50.794;7.054;2023-03-01T01:19:23;102139.03;;;-2.69;88.12
72925;BME280;61070;50.794;7.054;2023-03-01T01:21:49;102136.75;;;-2.77;87.85
72925;BME280;61070;50.794;7.054;2023-03-01T01:24:15;102129.34;;;-2.84;87.84
72925;BME280;61070;50.794;7.054;2023-03-01T01:26:41;102132.84;;;-2.84;87.88
72925;BME280;61070;50.794;7.054;2023-03-01T01:29:06;102122.88;;;-2.91;87.67
72925;BME280;61070;50.794;7.054;2023-03-01T01:31:33;102117.19;;;-2.99;87.59
72925;BME280;61070;50.794;7.054;2023-03-01T01:34:00;102111.91;;;-3.00;87.91
72925;BME280;61070;50.794;7.054;2023-03-01T01:36:26;102105.03;;;-3.00;88.81
72925;BME280;61070;50.794;7.054;2023-03-01T01:38:51;102098.66;;;-3.05;88.50
72925;BME280;61070;50.794;7.054;2023-03-01T01:41:17;102098.16;;;-2.99;88.92
72925;BME280;61070;50.794;7.054;2023-03-01T01:44:14;102098.25;;;-2.98;88.75
72925;BME280;61070;50.794;7.054;2023-03-01T01:46:43;102100.75;;;-2.99;88.31
72925;BME280;61070;50.794;7.054;2023-03-01T01:49:24;102098.44;;;-3.08;88.05
72925;BME280;61070;50.794;7.054;2023-03-01T01:51:54;102094.84;;;-3.10;88.02
72925;BME280;61070;50.794;7.054;2023-03-01T01:54:25;102090.84;;;-3.18;87.73
72925;BME280;61070;50.794;7.054;2023-03-01T01:56:57;102079.31;;;-3.23;88.08
72925;BME280;61070;50.794;7.054;2023-03-01T01:59:26;102087.38;;;-3.18;88.81
72925;BME280;61070;50.794;7.054;2023-03-01T02:01:52;102097.97;;;-3.15;88.95
72925;BME280;61070;50.794;7.054;2023-03-01T02:04:18;102094.75;;;-3.25;88.64
72925;BME280;61070;50.794;7.054;2023-03-01T02:06:55;102089.97;;;-3.32;88.27
72925;BME280;61070;50.794;7.054;2023-03-01T02:09:23;102090.66;;;-3.34;88.24
72925;BME280;61070;50.794;7.054;2023-03-01T02:11:49;102088.66;;;-3.38;87.97
72925;BME280;61070;50.794;7.054;2023-03-01T02:14:15;102087.53;;;-3.42;88.04
72925;BME280;61070;50.794;7.054;2023-03-01T02:16:41;102087.34;;;-3.45;88.62
72925;BME280;61070;50.794;7.054;2023-03-01T02:19:09;102086.97;;;-3.51;88.50
72925;BME280;61070;50.794;7.054;2023-03-01T02:24:35;102092.72;;;-3.55;89.33
72925;BME280;61070;50.794;7.054;2023-03-01T02:27:04;102083.66;;;-3.62;88.91
72925;BME280;61070;50.794;7.054;2023-03-01T02:29:30;102086.91;;;-3.64;88.73
72925;BME280;61070;50.794;7.054;2023-03-01T02:31:58;102072.78;;;-3.69;88.56
72925;BME280;61070;50.794;7.054;2023-03-01T02:34:25;102063.50;;;-3.66;88.73
72925;BME280;61070;50.794;7.054;2023-03-01T02:37:05;102056.16;;;-3.60;89.48
72925;BME280;61070;50.794;7.054;2023-03-01T02:39:46;102065.22;;;-3.53;89.79
72925;BME280;61070;50.794;7.054;2023-03-01T02:42:17;102068.50;;;-3.56;89.56
72925;BME280;61070;50.794;7.054;2023-03-01T02:44:45;102059.47;;;-3.49;90.34
72925;BME280;61070;50.794;7.054;2023-03-01T02:47:10;102062.63;;;-3.53;90.20
72925;BME280;61070;50.794;7.054;2023-03-01T02:49:36;102059.84;;;-3.56;90.43
72925;BME280;61070;50.794;7.054;2023-03-01T02:52:22;102058.84;;;-3.58;90.26
72925;BME280;61070;50.794;7.054;2023-03-01T02:55:01;102056.88;;;-3.62;90.21
72925;BME280;61070;50.794;7.054;2023-03-01T02:57:30;102061.13;;;-3.63;89.73
72925;BME280;61070;50.794;7.054;2023-03-01T02:59:59;102053.25;;;-3.64;90.35
72925;BME280;61070;50.794;7.054;2023-03-01T03:02:29;102055.53;;;-3.69;89.51
72925;BME280;61070;50.794;7.054;2023-03-01T03:05:21;102045.78;;;-3.73;90.03
72925;BME280;61070;50.794;7.054;2023-03-01T03:07:48;102055.63;;;-3.81;89.23
72925;BME280;61070;50.794;7.054;2023-03-01T03:10:20;102058.31;;;-3.79;90.07
72925;BME280;61070;50.794;7.054;2023-03-01T03:12:54;102051.63;;;-3.75;90.68
72925;BME280;61070;50.794;7.054;2023-03-01T03:15:20;102055.53;;;-3.82;90.20
72925;BME280;61070;50.794;7.054;2023-03-01T03:17:46;102047.75;;;-3.82;90.64
72925;BME280;61070;50.794;7.054;2023-03-01T03:20:14;102050.44;;;-3.81;90.56
72925;BME280;61070;50.794;7.054;2023-03-01T03:22:45;102043.13;;;-3.61;91.85
72925;BME280;61070;50.794;7.054;2023-03-01T03:25:11;102041.25;;;-3.50;93.01
72925;BME280;61070;50.794;7.054;2023-03-01T03:27:38;102036.03;;;-3.64;91.69
72925;BME280;61070;50.794;7.054;2023-03-01T03:30:08;102023.88;;;-3.65;92.11
72925;BME280;61070;50.794;7.054;2023-03-01T03:32:38;102033.66;;;-3.61;92.31
72925;BME280;61070;50.794;7.054;2023-03-01T03:35:04;102033.34;;;-3.65;91.59
72925;BME280;61070;50.794;7.054;2023-03-01T03:37:36;102034.22;;;-3.78;90.88
72925;BME280;61070;50.794;7.054;2023-03-01T03:40:20;102031.44;;;-3.68;92.74
72925;BME280;61070;50.794;7.054;2023-03-01T03:42:45;102029.75;;;-3.67;92.90
72925;BME280;61070;50.794;7.054;2023-03-01T03:45:10;102033.34;;;-3.65;92.69
72925;BME280;61070;50.794;7.054;2023-03-01T03:47:35;102036.03;;;-3.64;93.29
72925;BME280;61070;50.794;7.054;2023-03-01T03:50:01;102030.63;;;-3.80;91.81
72925;BME280;61070;50.794;7.054;2023-03-01T03:52:26;102017.00;;;-3.77;92.99
72925;BME280;61070;50.794;7.054;2023-03-01T03:54:51;102023.75;;;-3.79;93.77
72925;BME280;61070;50.794;7.054;2023-03-01T03:57:17;102024.06;;;-3.75;95.02
72925;BME280;61070;50.794;7.054;2023-03-01T03:59:42;102029.22;;;-3.75;95.60
72925;BME280;61070;50.794;7.054;2023-03-01T04:02:07;102024.84;;;-3.76;96.04
72925;BME280;61070;50.794;7.054;2023-03-01T04:04:34;102024.66;;;-3.79;96.39
72925;BME280;61070;50.794;7.054;2023-03-01T04:06:59;102013.59;;;-3.90;95.61
72925;BME280;61070;50.794;7.054;2023-03-01T04:09:24;102009.81;;;-3.95;95.72
72925;BME280;61070;50.794;7.054;2023-03-01T04:11:50;102001.72;;;-3.99;95.86
72925;BME280;61070;50.794;7.054;2023-03-01T04:14:15;101994.66;;;-4.02;95.90
72925;BME280;61070;50.794;7.054;2023-03-01T04:16:40;101999.53;;;-4.06;95.59
72925;BME280;61070;50.794;7.054;2023-03-01T04:19:06;102004.91;;;-4.03;96.03
72925;BME280;61070;50.794;7.054;2023-03-01T04:21:31;102007.06;;;-4.10;95.50
72925;BME280;61070;50.794;7.054;2023-03-01T04:23:56;102005.50;;;-4.07;95.48
72925;BME280;61070;50.794;7.054;2023-03-01T04:26:22;102006.06;;;-4.12;95.19
72925;BME280;61070;50.794;7.054;2023-03-01T04:28:47;102009.53;;;-4.11;95.17
72925;BME280;61070;50.794;7.054;2023-03-01T04:31:18;102008.66;;;-4.12;94.92
72925;BME280;61070;50.794;7.054;2023-03-01T04:33:49;102006.75;;;-4.14;95.29
72925;BME280;61070;50.794;7.054;2023-03-01T04:36:16;102006.47;;;-4.19;94.45
72925;BME280;61070;50.794;7.054;2023-03-01T04:38:42;102016.56;;;-4.22;94.75
72925;BME280;61070;50.794;7.054;2023-03-01T04:41:13;102012.88;;;-4.25;94.45
72925;BME280;61070;50.794;7.054;2023-03-01T04:43:38;102008.50;;;-4.26;94.89
72925;BME280;61070;50.794;7.054;2023-03-01T04:46:08;102005.81;;;-4.28;94.76
72925;BME280;61070;50.794;7.054;2023-03-01T04:48:39;102006.19;;;-4.35;93.86
72925;BME280;61070;50.794;7.054;2023-03-01T04:51:05;101994.63;;;-4.40;94.10
72925;BME280;61070;50.794;7.054;2023-03-01T04:53:31;101995.63;;;-4.38;94.55
72925;BME280;61070;50.794;7.054;2023-03-01T04:55:58;101995.28;;;-4.43;94.10
72925;BME280;61070;50.794;7.054;2023-03-01T04:58:25;101989.13;;;-4.45;93.17
72925;BME280;61070;50.794;7.054;2023-03-01T05:00:51;101986.88;;;-4.40;94.43
72925;BME280;61070;50.794;7.054;2023-03-01T05:03:17;101988.88;;;-4.36;95.76
72925;BME280;61070;50.794;7.054;2023-03-01T05:05:45;101996.63;;;-4.36;96.02
72925;BME280;61070;50.794;7.054;2023-03-01T05:08:11;102004.19;;;-4.39;95.54
72925;BME280;61070;50.794;7.054;2023-03-01T05:10:45;102000.84;;;-4.50;94.41
72925;BME280;61070;50.794;7.054;2023-03-01T05:13:12;102002.66;;;-4.49;94.76
72925;BME280;61070;50.794;7.054;2023-03-01T05:15:39;101997.28;;;-4.52;94.42
72925;BME280;61070;50.794;7.054;2023-03-01T05:18:04;101997.44;;;-4.37;95.05
72925;BME280;61070;50.794;7.054;2023-03-01T05:20:37;102003.13;;;-4.29;96.09
72925;BME280;61070;50.794;7.054;2023-03-01T05:23:02;102010.66;;;-4.32;95.38
72925;BME280;61070;50.794;7.054;2023-03-01T05:25:31;102005.78;;;-4.41;94.77
72925;BME280;61070;50.794;7.054;2023-03-01T05:27:58;102001.81;;;-4.36;95.38
72925;BME280;61070;50.794;7.054;2023-03-01T05:30:24;102001.44;;;-4.29;95.90
72925;BME280;61070;50.794;7.054;2023-03-01T05:32:50;101992.19;;;-4.25;96.44
72925;BME280;61070;50.794;7.054;2023-03-01T05:35:21;102002.75;;;-4.22;96.78
72925;BME280;61070;50.794;7.054;2023-03-01T05:37:48;102008.41;;;-4.28;96.38
72925;BME280;61070;50.794;7.054;2023-03-01T05:40:22;101999.22;;;-4.36;95.84
72925;BME280;61070;50.794;7.054;2023-03-01T05:42:53;102006.06;;;-4.36;95.95
72925;BME280;61070;50.794;7.054;2023-03-01T05:45:19;101998.38;;;-4.48;95.25
72925;BME280;61070;50.794;7.054;2023-03-01T05:47:46;102008.47;;;-4.40;96.08
72925;BME280;61070;50.794;7.054;2023-03-01T05:50:18;102015.56;;;-4.49;95.76
72925;BME280;61070;50.794;7.054;2023-03-01T05:52:47;102008.03;;;-4.46;96.36
72925;BME280;61070;50.794;7.054;2023-03-01T05:55:18;102015.47;;;-4.50;96.50
72925;BME280;61070;50.794;7.054;2023-03-01T05:57:44;102015.72;;;-4.59;95.73
72925;BME280;61070;50.794;7.054;2023-03-01T06:00:10;102008.56;;;-4.63;96.08
72925;BME280;61070;50.794;7.054;2023-03-01T06:02:36;102004.53;;;-4.71;96.51
72925;BME280;61070;50.794;7.054;2023-03-01T06:05:03;102008.31;;;-4.66;97.47
72925;BME280;61070;50.794;7.054;2023-03-01T06:07:31;102004.72;;;-4.68;97.84
72925;BME280;61070;50.794;7.054;2023-03-01T06:09:56;101997.91;;;-4.79;97.52
72925;BME280;61070;50.794;7.054;2023-03-01T06:12:21;101996.19;;;-4.67;99.25
72925;BME280;61070;50.794;7.054;2023-03-01T06:14:47;101991.00;;;-4.67;99.78
72925;BME280;61070;50.794;7.054;2023-03-01T06:17:13;101989.44;;;-4.65;99.54
72925;BME280;61070;50.794;7.054;2023-03-01T06:19:38;101983.94;;;-4.70;99.16
72925;BME280;61070;50.794;7.054;2023-03-01T06:22:04;101984.44;;;-4.75;98.59
72925;BME280;61070;50.794;7.054;2023-03-01T06:24:29;101990.94;;;-4.80;98.13
72925;BME280;61070;50.794;7.054;2023-03-01T06:26:54;101996.91;;;-4.81;98.18
72925;BME280;61070;50.794;7.054;2023-03-01T06:29:21;101990.16;;;-4.79;98.37
72925;BME280;61070;50.794;7.054;2023-03-01T06:31:47;101993.75;;;-4.77;97.87
72925;BME280;61070;50.794;7.054;2023-03-01T06:34:12;101986.00;;;-4.77;97.97
72925;BME280;61070;50.794;7.054;2023-03-01T06:36:39;101991.34;;;-4.62;100.00
72925;BME280;61070;50.794;7.054;2023-03-01T06:39:05;101991.22;;;-4.52;100.00
72925;BME280;61070;50.794;7.054;2023-03-01T06:41:31;101989.53;;;-4.52;100.00
72925;BME280;61070;50.794;7.054;2023-03-01T06:43:56;101989.19;;;-4.56;99.86
72925;BME280;61070;50.794;7.054;2023-03-01T06:46:22;101984.91;;;-4.56;99.94
72925;BME280;61070;50.794;7.054;2023-03-01T06:48:47;101987.59;;;-4.54;99.49
72925;BME280;61070;50.794;7.054;2023-03-01T06:51:12;101995.78;;;-4.48;100.00
72925;BME280;61070;50.794;7.054;2023-03-01T06:53:38;101990.31;;;-4.53;99.37
72925;BME280;61070;50.794;7.054;2023-03-01T06:56:03;101991.50;;;-4.48;99.56
72925;BME280;61070;50.794;7.054;2023-03-01T06:58:28;101999.25;;;-4.48;98.81
72925;BME280;61070;50.794;7.054;2023-03-01T07:00:55;102003.75;;;-4.45;98.18
72925;BME280;61070;50.794;7.054;2023-03-01T07:03:20;102005.88;;;-4.40;98.83
72925;BME280;61070;50.794;7.054;2023-03-01T07:05:48;102001.09;;;-4.33;98.60
72925;BME280;61070;50.794;7.054;2023-03-01T07:08:14;102000.66;;;-4.28;98.50
72925;BME280;61070;50.794;7.054;2023-03-01T07:10:39;101993.00;;;-4.26;98.62
72925;BME280;61070;50.794;7.054;2023-03-01T07:13:05;101993.09;;;-4.25;97.74
72925;BME280;61070;50.794;7.054;2023-03-01T07:15:32;101989.13;;;-4.20;97.51
72925;BME280;61070;50.794;7.054;2023-03-01T07:17:57;101982.59;;;-4.15;97.38
72925;BME280;61070;50.794;7.054;2023-03-01T07:20:23;101986.59;;;-4.06;97.48
72925;BME280;61070;50.794;7.054;2023-03-01T07:22:51;101976.72;;;-3.99;97.66
72925;BME280;61070;50.794;7.054;2023-03-01T07:25:16;101976.16;;;-3.95;97.25
72925;BME280;61070;50.794;7.054;2023-03-01T07:27:41;101982.22;;;-3.94;96.73
72925;BME280;61070;50.794;7.054;2023-03-01T07:30:07;101984.13;;;-3.92;96.06
72925;BME280;61070;50.794;7.054;2023-03-01T07:32:33;101979.56;;;-3.83;96.30
72925;BME280;61070;50.794;7.054;2023-03-01T07:34:58;101977.78;;;-3.70;96.74
72925;BME280;61070;50.794;7.054;2023-03-01T07:37:24;101977.38;;;-3.63;96.01
72925;BME280;61070;50.794;7.054;2023-03-01T07:39:49;101977.69;;;-3.59;95.60
72925;BME280;61070;50.794;7.054;2023-03-01T07:42:14;101976.69;;;-3.47;95.74
72925;BME280;61070;50.794;7.054;2023-03-01T07:44:39;101978.66;;;-3.30;96.41
72925;BME280;61070;50.794;7.054;2023-03-01T07:47:05;101975.19;;;-3.31;95.71
72925;BME280;61070;50.794;7.054;2023-03-01T07:49:30;101979.06;;;-3.11;96.90
72925;BME280;61070;50.794;7.054;2023-03-01T07:51:57;101970.19;;;-3.14;95.78
72925;BME280;61070;50.794;7.054;2023-03-01T07:54:22;101969.78;;;-3.07;95.68
72925;BME280;61070;50.794;7.054;2023-03-01T07:56:51;101971.69;;;-3.05;95.85
72925;BME280;61070;50.794;7.054;2023-03-01T07:59:16;101967.41;;;-3.04;94.73
72925;BME280;61070;50.794;7.054;2023-03-01T08:01:42;101974.56;;;-3.00;94.60
72925;BME280;61070;50.794;7.054;2023-03-01T08:04:08;101972.06;;;-2.99;93.99
72925;BME280;61070;50.794;7.054;2023-03-01T08:06:34;101967.84;;;-2.97;93.69
72925;BME280;61070;50.794;7.054;2023-03-01T08:08:59;101968.97;;;-2.93;92.88
72925;BME280;61070;50.794;7.054;2023-03-01T08:11:25;101962.44;;;-2.86;93.38
72925;BME280;61070;50.794;7.054;2023-03-01T08:13:50;101963.91;;;-2.77;93.10
72925;BME280;61070;50.794;7.054;2023-03-01T08:16:15;101972.47;;;-2.65;93.35
72925;BME280;61070;50.794;7.054;2023-03-01T08:18:42;101973.13;;;-2.54;93.31
72925;BME280;61070;50.794;7.054;2023-03-01T08:21:10;101971.34;;;-2.40;93.39
72925;BME280;61070;50.794;7.054;2023-03-01T08:23:35;101958.06;;;-2.31;92.72
72925;BME280;61070;50.794;7.054;2023-03-01T08:26:09;101955.13;;;-2.23;91.53
72925;BME280;61070;50.794;7.054;2023-03-01T08:28:35;101951.28;;;-2.15;89.05
72925;BME280;61070;50.794;7.054;2023-03-01T08:31:00;101953.25;;;-2.11;88.21
72925;BME280;61070;50.794;7.054;2023-03-01T08:33:26;101952.81;;;-2.03;87.97
72925;BME280;61070;50.794;7.054;2023-03-01T08:35:51;101955.13;;;-1.93;87.94
72925;BME280;61070;50.794;7.054;2023-03-01T08:38:17;101944.31;;;-1.86;88.22
72925;BME280;61070;50.794;7.054;2023-03-01T08:40:42;101948.31;;;-1.77;87.58
72925;BME280;61070;50.794;7.054;2023-03-01T08:43:07;101954.25;;;-1.79;87.09
72925;BME280;61070;50.794;7.054;2023-03-01T08:45:33;101948.50;;;-1.73;87.30
72925;BME280;61070;50.794;7.054;2023-03-01T08:47:58;101949.19;;;-1.61;87.52
72925;BME280;61070;50.794;7.054;2023-03-01T08:50:24;101959.16;;;-1.54;87.35
72925;BME280;61070;50.794;7.054;2023-03-01T08:52:49;101962.19;;;-1.47;86.28
72925;BME280;61070;50.794;7.054;2023-03-01T08:55:15;101966.19;;;-1.37;85.64
72925;BME280;61070;50.794;7.054;2023-03-01T08:57:42;101958.81;;;-1.29;85.72
72925;BME280;61070;50.794;7.054;2023-03-01T09:00:07;101968.19;;;-1.17;84.83
72925;BME280;61070;50.794;7.054;2023-03-01T09:02:34;101963.59;;;-1.06;83.74
72925;BME280;61070;50.794;7.054;2023-03-01T09:04:59;101956.06;;;-1.01;82.54
72925;BME280;61070;50.794;7.054;2023-03-01T09:07:26;101956.97;;;-1.01;83.06
72925;BME280;61070;50.794;7.054;2023-03-01T09:09:53;101953.88;;;-0.94;82.78
72925;BME280;61070;50.794;7.054;2023-03-01T09:12:19;101946.56;;;-0.84;82.38
72925;BME280;61070;50.794;7.054;2023-03-01T09:14:44;101945.44;;;-0.90;82.69
72925;BME280;61070;50.794;7.054;2023-03-01T09:17:10;101942.19;;;-0.85;83.01
72925;BME280;61070;50.794;7.054;2023-03-01T09:19:35;101947.06;;;-0.75;82.48
72925;BME280;61070;50.794;7.054;2023-03-01T09:22:00;101938.63;;;-0.55;82.60
72925;BME280;61070;50.794;7.054;2023-03-01T09:24:26;101928.28;;;-0.53;82.28
72925;BME280;61070;50.794;7.054;2023-03-01T09:26:54;101925.78;;;-0.52;82.15
72925;BME280;61070;50.794;7.054;2023-03-01T09:29:20;101926.75;;;-0.50;82.27
72925;BME280;61070;50.794;7.054;2023-03-01T09:31:46;101920.22;;;-0.42;82.73
72925;BME280;61070;50.794;7.054;2023-03-01T09:34:11;101915.59;;;-0.31;82.29
72925;BME280;61070;50.794;7.054;2023-03-01T09:36:37;101923.28;;;-0.16;82.74
72925;BME280;61070;50.794;7.054;2023-03-01T09:39:02;101922.34;;;-0.01;82.60
72925;BME280;61070;50.794;7.054;2023-03-01T09:44:13;101915.72;;;0.06;82.07
72925;BME280;61070;50.794;7.054;2023-03-01T09:46:43;101916.28;;;0.17;81.18
72925;BME280;61070;50.794;7.054;2023-03-01T09:49:13;101914.34;;;0.31;80.96
72925;BME280;61070;50.794;7.054;2023-03-01T09:51:41;101903.69;;;0.62;80.38
72925;BME280;61070;50.794;7.054;2023-03-01T09:54:09;101896.81;;;0.81;79.45
72925;BME280;61070;50.794;7.054;2023-03-01T09:56:42;101894.47;;;0.87;78.70
72925;BME280;61070;50.794;7.054;2023-03-01T09:59:23;101900.00;;;0.94;79.50
72925;BME280;61070;50.794;7.054;2023-03-01T10:02:26;101908.16;;;1.01;78.43
72925;BME280;61070;50.794;7.054;2023-03-01T10:04:50;101894.78;;;1.13;78.22
72925;BME280;61070;50.794;7.054;2023-03-01T10:07:32;101894.09;;;1.17;77.94
72925;BME280;61070;50.794;7.054;2023-03-01T10:10:07;101883.25;;;1.27;77.47
72925;BME280;61070;50.794;7.054;2023-03-01T10:12:35;101885.03;;;1.28;76.92
72925;BME280;61070;50.794;7.054;2023-03-01T10:15:18;101880.25;;;1.37;77.59
72925;BME280;61070;50.794;7.054;2023-03-01T10:20:43;101870.38;;;1.91;76.63
72925;BME280;61070;50.794;7.054;2023-03-01T10:23:10;101873.47;;;2.03;75.72
72925;BME280;61070;50.794;7.054;2023-03-01T10:25:52;101863.38;;;2.11;73.78
72925;BME280;61070;50.794;7.054;2023-03-01T10:28:29;101863.84;;;2.23;74.99
72925;BME280;61070;50.794;7.054;2023-03-01T10:30:57;101847.81;;;2.37;71.46
72925;BME280;61070;50.794;7.054;2023-03-01T10:33:27;101850.41;;;2.57;71.26
72925;BME280;61070;50.794;7.054;2023-03-01T10:35:54;101842.63;;;2.59;70.85
72925;BME280;61070;50.794;7.054;2023-03-01T10:38:20;101848.03;;;2.63;69.12
72925;BME280;61070;50.794;7.054;2023-03-01T10:40:51;101838.00;;;2.74;68.59
72925;BME280;61070;50.794;7.054;2023-03-01T10:43:18;101833.22;;;2.86;69.07
72925;BME280;61070;50.794;7.054;2023-03-01T10:45:44;101840.63;;;3.22;68.04
72925;BME280;61070;50.794;7.054;2023-03-01T10:48:18;101841.03;;;3.33;66.06
72925;BME280;61070;50.794;7.054;2023-03-01T10:51:06;101837.13;;;3.45;64.51
72925;BME280;61070;50.794;7.054;2023-03-01T10:53:33;101833.72;;;3.73;63.34
72925;BME280;61070;50.794;7.054;2023-03-01T10:56:05;101826.16;;;3.83;63.70
72925;BME280;61070;50.794;7.054;2023-03-01T10:58:33;101819.41;;;3.89;62.17
72925;BME280;61070;50.794;7.054;2023-03-01T11:01:05;101810.34;;;3.79;61.33
72925;BME280;61070;50.794;7.054;2023-03-01T11:03:38;101810.81;;;3.68;61.20
72925;BME280;61070;50.794;7.054;2023-03-01T11:08:46;101794.00;;;3.87;61.37
72925;BME280;61070;50.794;7.054;2023-03-01T11:13:49;101781.78;;;4.14;58.99
72925;BME280;61070;50.794;7.054;2023-03-01T11:16:23;101778.88;;;4.06;58.64
72925;BME280;61070;50.794;7.054;2023-03-01T11:18:56;101771.09;;;4.08;57.83
72925;BME280;61070;50.794;7.054;2023-03-01T11:21:22;101765.47;;;4.24;58.55
72925;BME280;61070;50.794;7.054;2023-03-01T11:23:50;101762.84;;;4.24;58.22
72925;BME280;61070;50.794;7.054;2023-03-01T11:26:15;101762.38;;;4.37;56.33
72925;BME280;61070;50.794;7.054;2023-03-01T11:28:43;101750.91;;;4.34;55.70
72925;BME280;61070;50.794;7.054;2023-03-01T11:31:14;101759.75;;;4.37;56.54
72925;BME280;61070;50.794;7.054;2023-03-01T11:33:48;101760.94;;;4.47;56.23
72925;BME280;61070;50.794;7.054;2023-03-01T11:41:39;101749.25;;;4.66;56.66
72925;BME280;61070;50.794;7.054;2023-03-01T11:44:14;101746.84;;;4.74;58.61
72925;BME280;61070;50.794;7.054;2023-03-01T11:46:51;101744.00;;;4.66;57.07
72925;BME280;61070;50.794;7.054;2023-03-01T11:55:19;101725.78;;;5.02;55.97
72925;BME280;61070;50.794;7.054;2023-03-01T12:00:23;101711.00;;;5.07;54.44
72925;BME280;61070;50.794;7.054;2023-03-01T12:08:41;101693.25;;;5.32;54.87
72925;BME280;61070;50.794;7.054;2023-03-01T12:14:00;101686.59;;;5.44;54.88
72925;BME280;61070;50.794;7.054;2023-03-01T12:16:49;101683.59;;;5.65;53.61
72925;BME280;61070;50.794;7.054;2023-03-01T12:33:22;101675.97;;;6.12;51.03
72925;BME280;61070;50.794;7.054;2023-03-01T12:38:50;101668.88;;;6.09;52.40
72925;BME280;61070;50.794;7.054;2023-03-01T12:47:10;101653.25;;;6.17;51.34
72925;BME280;61070;50.794;7.054;2023-03-01T12:49:50;101655.69;;;6.08;50.50
72925;BME280;61070;50.794;7.054;2023-03-01T12:52:24;101648.53;;;6.01;49.84
72925;BME280;61070;50.794;7.054;2023-03-01T12:54:53;101647.81;;;6.09;50.64
72925;BME280;61070;50.794;7.054;2023-03-01T12:57:33;101645.34;;;6.16;51.00
72925;BME280;61070;50.794;7.054;2023-03-01T13:03:23;101641.25;;;6.30;49.28
72925;BME280;61070;50.794;7.054;2023-03-01T13:06:19;101638.88;;;6.42;49.57
72925;BME280;61070;50.794;7.054;2023-03-01T13:11:21;101632.25;;;6.62;49.62
72925;BME280;61070;50.794;7.054;2023-03-01T13:13:47;101625.16;;;6.58;48.63
72925;BME280;61070;50.794;7.054;2023-03-01T13:19:09;101612.41;;;6.80;49.59
72925;BME280;61070;50.794;7.054;2023-03-01T13:21:37;101603.78;;;6.90;47.34
72925;BME280;61070;50.794;7.054;2023-03-01T13:24:03;101605.69;;;6.97;47.74
72925;BME280;61070;50.794;7.054;2023-03-01T13:26:28;101597.72;;;6.92;47.20
72925;BME280;61070;50.794;7.054;2023-03-01T13:28:56;101606.78;;;7.11;46.80
72925;BME280;61070;50.794;7.054;2023-03-01T13:33:57;101595.47;;;7.17;44.94
72925;BME280;61070;50.794;7.054;2023-03-01T13:46:50;101585.16;;;7.30;44.05
72925;BME280;61070;50.794;7.054;2023-03-01T13:49:19;101584.28;;;7.32;44.71
72925;BME280;61070;50.794;7.054;2023-03-01T13:51:49;101577.47;;;7.44;44.37
72925;BME280;61070;50.794;7.054;2023-03-01T13:54:16;101572.31;;;7.53;44.55
72925;BME280;61070;50.794;7.054;2023-03-01T13:56:45;101571.31;;;7.44;43.36
72925;BME280;61070;50.794;7.054;2023-03-01T13:59:19;101573.13;;;7.48;43.83
72925;BME280;61070;50.794;7.054;2023-03-01T14:01:54;101565.31;;;7.54;42.84
72925;BME280;61070;50.794;7.054;2023-03-01T14:04:27;101574.22;;;7.62;42.94
72925;BME280;61070;50.794;7.054;2023-03-01T14:07:18;101563.81;;;7.71;42.00
72925;BME280;61070;50.794;7.054;2023-03-01T14:09:46;101564.84;;;7.84;42.62
72925;BME280;61070;50.794;7.054;2023-03-01T14:15:08;101558.72;;;7.88;42.20
72925;BME280;61070;50.794;7.054;2023-03-01T14:22:40;101557.97;;;7.95;41.72
72925;BME280;61070;50.794;7.054;2023-03-01T14:25:34;101541.28;;;7.98;41.73
72925;BME280;61070;50.794;7.054;2023-03-01T14:30:34;101521.22;;;8.12;40.72
72925;BME280;61070;50.794;7.054;2023-03-01T14:33:03;101522.09;;;8.14;41.83